Time;durP1;ratioP1;P1;durP2;ratioP2;P2;SDS_P1;SDS_P2;PMS_P1;PMS_P2;Temp;Humidity;BMP_temperature;BMP_pressure;BME280_temperature;BME280_humidity;BME280_pressure;Samples;Min_cycle;Max_cycle;Signal;HPM_P1;HPM_P2
2021/03/12 00:00:30;;;;;;;9.18;2.53;;;8.30;76.30;;;;;;4993491;28;20030;-90
2021/03/12 00:02:56;;;;;;;7.15;1.83;;;8.30;76.20;;;;;;4993994;28;20457;-90
2021/03/12 00:05:22;;;;;;;7.28;2.20;;;8.30;76.00;;;;;;4993722;28;20018;-90
2021/03/12 00:07:47;;;;;;;10.25;2.28;;;8.30;75.90;;;;;;4993165;28;20378;-89
2021/03/12 00:10:19;;;;;;;8.25;2.15;;;8.30;75.90;;;;;;4993185;28;20018;-89
2021/03/12 00:12:45;;;;;;;9.25;2.10;;;8.30;75.80;;;;;;4992984;28;20101;-91
2021/03/12 00:15:21;;;;;;;7.63;2.15;;;8.40;75.70;;;;;;4990094;28;20019;-92
2021/03/12 00:17:49;;;;;;;6.57;1.77;;;8.30;75.50;;;;;;4993579;28;20097;-92
2021/03/12 00:20:22;;;;;;;8.00;2.30;;;8.40;75.30;;;;;;4989402;28;20437;-92
2021/03/12 00:22:49;;;;;;;6.18;1.70;;;8.30;75.30;;;;;;4991451;28;20046;-91
2021/03/12 00:25:25;;;;;;;8.02;2.10;;;8.40;75.10;;;;;;4993302;28;20409;-92
2021/03/12 00:27:51;;;;;;;5.63;1.73;;;8.40;75.00;;;;;;4993609;28;20074;-89
2021/03/12 00:30:18;;;;;;;5.68;1.95;;;8.30;74.80;;;;;;4992736;28;20137;-92
2021/03/12 00:32:44;;;;;;;11.23;2.00;;;8.30;74.80;;;;;;4993046;28;20067;-92
2021/03/12 00:35:10;;;;;;;7.88;2.10;;;8.40;74.70;;;;;;4992594;28;20022;-92
2021/03/12 00:37:36;;;;;;;8.98;2.28;;;8.30;74.60;;;;;;4993970;28;20050;-91
2021/03/12 00:40:09;;;;;;;6.63;1.90;;;8.30;74.60;;;;;;4993218;28;20029;-91
2021/03/12 00:42:35;;;;;;;4.63;1.52;;;8.30;74.50;;;;;;4992683;28;20040;-91
2021/03/12 00:45:00;;;;;;;5.38;1.90;;;8.30;74.60;;;;;;4992985;28;20113;-90
2021/03/12 00:47:26;;;;;;;6.93;1.85;;;8.30;74.50;;;;;;4993676;28;20026;-89
2021/03/12 00:49:51;;;;;;;6.80;2.10;;;8.30;74.40;;;;;;4991823;28;20033;-89
2021/03/12 00:52:17;;;;;;;7.22;2.08;;;8.20;74.50;;;;;;4992558;28;20053;-90
2021/03/12 00:54:42;;;;;;;7.15;2.25;;;8.20;74.40;;;;;;4991807;28;20485;-92
2021/03/12 00:57:08;;;;;;;4.70;1.70;;;8.20;74.40;;;;;;4993317;28;20037;-91
2021/03/12 00:59:33;;;;;;;6.88;2.05;;;8.20;74.40;;;;;;4991595;28;20018;-91
2021/03/12 01:01:59;;;;;;;4.55;1.83;;;8.20;74.30;;;;;;4992513;28;20508;-91
2021/03/12 01:04:24;;;;;;;5.72;1.70;;;8.20;74.30;;;;;;4992057;28;20533;-90
2021/03/12 01:06:50;;;;;;;5.82;1.55;;;8.20;74.20;;;;;;4992917;28;20044;-91
2021/03/12 01:09:15;;;;;;;6.55;1.95;;;8.20;74.20;;;;;;4992035;28;20097;-91
2021/03/12 01:11:41;;;;;;;5.88;1.50;;;8.20;74.20;;;;;;4992326;28;20114;-90
2021/03/12 01:14:07;;;;;;;5.70;1.90;;;8.20;74.20;;;;;;4991624;28;20512;-90
2021/03/12 01:16:32;;;;;;;5.70;1.67;;;8.20;74.20;;;;;;4992459;28;20022;-90
2021/03/12 01:18:58;;;;;;;7.20;1.77;;;8.20;74.10;;;;;;4991779;28;20031;-90
2021/03/12 01:21:23;;;;;;;7.43;2.10;;;8.20;74.10;;;;;;4991826;28;20060;-90
2021/03/12 01:23:50;;;;;;;8.23;2.30;;;8.20;74.10;;;;;;4991037;28;20026;-91
2021/03/12 01:26:16;;;;;;;8.15;2.28;;;8.10;74.00;;;;;;4992724;28;20037;-91
2021/03/12 01:28:41;;;;;;;7.25;1.75;;;8.10;73.90;;;;;;4991531;28;20030;-91
2021/03/12 01:31:07;;;;;;;8.32;2.15;;;8.10;73.90;;;;;;4991954;28;20068;-91
2021/03/12 01:33:32;;;;;;;5.30;1.70;;;8.10;73.90;;;;;;4990689;28;20027;-91
2021/03/12 01:35:58;;;;;;;5.57;1.77;;;8.10;73.90;;;;;;4988253;28;20117;-91
2021/03/12 01:38:23;;;;;;;6.88;2.20;;;8.10;73.80;;;;;;4991557;28;20460;-93
2021/03/12 01:40:50;;;;;;;9.35;2.38;;;8.10;73.70;;;;;;4992032;28;20034;-91
2021/03/12 01:43:17;;;;;;;9.43;2.47;;;8.10;73.70;;;;;;4992071;28;20026;-92
2021/03/12 01:45:48;;;;;;;7.25;2.28;;;8.10;73.50;;;;;;4992398;28;20038;-91
2021/03/12 01:48:16;;;;;;;5.93;2.05;;;8.10;73.40;;;;;;4991921;28;20109;-90
2021/03/12 01:50:48;;;;;;;6.15;2.00;;;8.10;73.50;;;;;;4989406;28;20026;-89
2021/03/12 01:53:16;;;;;;;6.00;2.42;;;8.00;73.40;;;;;;4990695;28;20027;-90
2021/03/12 01:55:42;;;;;;;7.70;2.35;;;8.10;73.50;;;;;;4981984;28;20041;-91
2021/03/12 01:58:08;;;;;;;7.35;1.92;;;8.00;73.20;;;;;;4988803;28;20022;-91
2021/03/12 02:00:34;;;;;;;7.32;2.20;;;8.00;73.30;;;;;;4987705;28;20063;-90
2021/03/12 02:03:02;;;;;;;7.03;2.33;;;8.00;73.20;;;;;;4990175;28;20034;-90
2021/03/12 02:05:28;;;;;;;7.03;2.42;;;8.00;73.20;;;;;;4990595;28;20102;-90
2021/03/12 02:07:55;;;;;;;5.90;2.03;;;8.00;73.20;;;;;;4981373;28;20075;-91
2021/03/12 02:10:23;;;;;;;9.55;2.63;;;8.00;73.30;;;;;;4987179;28;20018;-91
2021/03/12 02:13:06;;;;;;;7.47;2.20;;;8.00;73.30;;;;;;4975049;28;20034;-90
2021/03/12 02:15:43;;;;;;;7.90;2.60;;;8.00;73.40;;;;;;4989963;28;20464;-89
2021/03/12 02:18:28;;;;;;;6.82;2.08;;;7.90;73.20;;;;;;4991569;28;20035;-90
2021/03/12 02:20:58;;;;;;;12.10;2.45;;;7.90;73.20;;;;;;4987066;28;20169;-91
2021/03/12 02:23:48;;;;;;;7.22;2.38;;;7.90;73.30;;;;;;4991448;28;20026;-91
2021/03/12 02:26:35;;;;;;;8.55;2.03;;;7.90;73.30;;;;;;4990316;28;20394;-90
2021/03/12 02:29:04;;;;;;;9.68;2.53;;;7.80;73.30;;;;;;4992150;28;20469;-90
2021/03/12 02:31:32;;;;;;;6.82;2.00;;;7.90;73.30;;;;;;4991559;28;20027;-89
2021/03/12 02:33:58;;;;;;;8.02;2.55;;;7.90;73.30;;;;;;4990758;28;20061;-90
2021/03/12 02:36:28;;;;;;;6.07;1.90;;;7.80;73.40;;;;;;4990614;28;20041;-90
2021/03/12 02:38:56;;;;;;;6.30;1.77;;;7.80;73.50;;;;;;4991538;28;20023;-91
2021/03/12 02:41:24;;;;;;;8.93;2.30;;;7.80;73.50;;;;;;4990736;28;20401;-88
2021/03/12 02:43:51;;;;;;;8.70;2.22;;;7.80;73.60;;;;;;4989619;28;20054;-90
2021/03/12 02:46:19;;;;;;;8.75;2.40;;;7.80;73.50;;;;;;4990997;28;20490;-88
2021/03/12 02:48:45;;;;;;;11.73;2.85;;;7.80;73.60;;;;;;4979590;28;20026;-90
2021/03/12 02:51:12;;;;;;;9.35;2.17;;;7.80;73.60;;;;;;4986337;28;20022;-89
2021/03/12 02:53:37;;;;;;;7.93;2.35;;;7.80;73.70;;;;;;4990879;28;20481;-89
2021/03/12 02:56:04;;;;;;;9.20;2.30;;;7.80;73.70;;;;;;4989876;28;20114;-89
2021/03/12 02:58:31;;;;;;;6.40;1.73;;;7.80;73.70;;;;;;4991389;28;20068;-89
2021/03/12 03:00:57;;;;;;;10.90;2.47;;;7.80;73.80;;;;;;4990488;28;20042;-89
2021/03/12 03:03:23;;;;;;;10.82;2.60;;;7.80;73.80;;;;;;4990588;28;20602;-89
2021/03/12 03:05:48;;;;;;;8.18;2.10;;;7.80;73.90;;;;;;4994941;28;20059;-90
2021/03/12 03:08:15;;;;;;;9.38;2.00;;;7.70;73.90;;;;;;5001218;28;20026;-91
2021/03/12 03:10:41;;;;;;;9.45;2.17;;;7.70;74.10;;;;;;5001782;28;20030;-90
2021/03/12 03:13:08;;;;;;;5.85;1.70;;;7.70;74.00;;;;;;5000994;28;20118;-91
2021/03/12 03:15:35;;;;;;;8.65;2.08;;;7.80;74.00;;;;;;4993686;28;20503;-90
2021/03/12 03:18:01;;;;;;;9.13;2.05;;;7.80;74.00;;;;;;4987190;28;20048;-91
2021/03/12 03:20:29;;;;;;;7.55;1.80;;;7.70;74.00;;;;;;4984470;28;20057;-92
2021/03/12 03:22:55;;;;;;;6.70;2.20;;;7.70;74.00;;;;;;4995649;28;20040;-91
2021/03/12 03:25:20;;;;;;;6.45;1.80;;;7.70;73.90;;;;;;4995021;28;20026;-90
2021/03/12 03:27:47;;;;;;;7.80;1.90;;;7.70;74.10;;;;;;4994586;28;20034;-90
2021/03/12 03:30:15;;;;;;;10.90;2.45;;;7.70;74.20;;;;;;4992068;28;20026;-89
2021/03/12 03:32:41;;;;;;;5.55;1.95;;;7.60;74.10;;;;;;4993946;28;20026;-90
2021/03/12 03:35:11;;;;;;;7.15;1.73;;;7.60;74.00;;;;;;4992955;28;20037;-89
2021/03/12 03:37:37;;;;;;;6.47;1.95;;;7.60;74.00;;;;;;4992831;28;20023;-90
2021/03/12 03:40:05;;;;;;;9.82;2.00;;;7.60;73.90;;;;;;4992852;28;20029;-90
2021/03/12 03:42:34;;;;;;;9.00;1.90;;;7.60;74.00;;;;;;4992985;28;20142;-90
2021/03/12 03:45:01;;;;;;;6.53;2.08;;;7.60;74.00;;;;;;4994863;28;20029;-91
2021/03/12 03:47:28;;;;;;;6.88;1.70;;;7.60;74.10;;;;;;4994438;28;20077;-91
2021/03/12 03:49:55;;;;;;;8.63;2.55;;;7.60;74.60;;;;;;4994116;28;20493;-91
2021/03/12 03:52:23;;;;;;;9.88;2.08;;;7.60;73.90;;;;;;4993396;28;20061;-90
2021/03/12 03:54:53;;;;;;;9.00;2.17;;;7.60;73.90;;;;;;4993269;28;20026;-91
2021/03/12 03:57:21;;;;;;;9.30;1.88;;;7.60;74.00;;;;;;4991463;28;20114;-89
2021/03/12 03:59:48;;;;;;;7.60;2.10;;;7.50;74.00;;;;;;4994842;28;20030;-90
2021/03/12 04:02:16;;;;;;;4.55;1.38;;;7.50;74.10;;;;;;4993192;28;20289;-90
2021/03/12 04:04:50;;;;;;;6.55;1.52;;;7.50;74.10;;;;;;4993044;28;20064;-90
2021/03/12 04:07:18;;;;;;;6.65;1.42;;;7.50;74.10;;;;;;4993976;28;20026;-91
2021/03/12 04:09:46;;;;;;;8.18;2.13;;;7.50;74.20;;;;;;4994377;28;20030;-90
2021/03/12 04:12:13;;;;;;;5.22;1.67;;;7.40;74.20;;;;;;4992009;28;20022;-90
2021/03/12 04:14:41;;;;;;;6.20;2.13;;;7.40;74.30;;;;;;4993019;28;20033;-90
2021/03/12 04:17:07;;;;;;;7.45;1.75;;;7.40;74.40;;;;;;4992150;28;20030;-91
2021/03/12 04:19:33;;;;;;;6.95;1.60;;;7.40;74.40;;;;;;4989539;28;20061;-89
2021/03/12 04:21:59;;;;;;;8.02;2.00;;;7.40;74.60;;;;;;4987460;28;20046;-91
2021/03/12 04:24:26;;;;;;;5.60;1.73;;;7.30;74.60;;;;;;4992422;28;20026;-91
2021/03/12 04:26:52;;;;;;;6.95;1.83;;;7.30;74.60;;;;;;4992429;28;20034;-91
2021/03/12 04:29:18;;;;;;;7.00;1.67;;;7.30;74.70;;;;;;4992960;28;20038;-90
2021/03/12 04:31:44;;;;;;;6.38;1.80;;;7.20;74.90;;;;;;4993195;28;20501;-90
2021/03/12 04:34:10;;;;;;;9.25;2.35;;;7.20;75.00;;;;;;4992957;28;20034;-91
2021/03/12 04:36:37;;;;;;;2.95;1.10;;;7.10;75.10;;;;;;4991741;28;20469;-90
2021/03/12 04:39:03;;;;;;;9.13;1.77;;;7.10;75.20;;;;;;4989542;28;20580;-90
2021/03/12 04:41:29;;;;;;;7.15;1.98;;;7.00;75.20;;;;;;4992717;28;20033;-91
2021/03/12 04:43:55;;;;;;;5.35;1.80;;;7.00;75.40;;;;;;4993256;28;20022;-91
2021/03/12 04:46:21;;;;;;;6.88;2.17;;;6.90;75.40;;;;;;4991596;28;20037;-91
2021/03/12 04:48:47;;;;;;;6.82;1.60;;;6.90;75.70;;;;;;4992059;28;20038;-92
2021/03/12 04:51:13;;;;;;;6.43;1.77;;;6.80;75.80;;;;;;4993378;28;20058;-93
2021/03/12 04:53:39;;;;;;;8.00;1.70;;;6.80;75.80;;;;;;4987362;28;20023;-92
2021/03/12 04:56:06;;;;;;;5.80;1.58;;;6.80;75.90;;;;;;4993956;28;20023;-93
2021/03/12 04:58:32;;;;;;;3.85;1.50;;;6.70;75.90;;;;;;4992249;28;20032;-94
2021/03/12 05:00:57;;;;;;;7.57;1.80;;;6.70;75.90;;;;;;4993392;28;20121;-93
2021/03/12 05:03:23;;;;;;;8.85;2.00;;;6.70;76.00;;;;;;4993107;28;20711;-93
2021/03/12 05:05:51;;;;;;;8.65;1.83;;;6.70;76.00;;;;;;4992351;28;20015;-92
2021/03/12 05:08:18;;;;;;;5.45;1.60;;;6.60;76.00;;;;;;4993007;28;20045;-93
2021/03/12 05:11:04;;;;;;;9.38;1.83;;;6.60;76.10;;;;;;4992198;28;20027;-92
2021/03/12 05:13:30;;;;;;;6.15;1.70;;;6.60;76.10;;;;;;4991440;28;20495;-92
2021/03/12 05:15:56;;;;;;;5.43;1.35;;;6.60;76.10;;;;;;4993594;28;20105;-90
2021/03/12 05:18:21;;;;;;;5.22;1.20;;;6.60;76.10;;;;;;4992520;28;20109;-90
2021/03/12 05:20:48;;;;;;;7.65;1.38;;;6.60;76.10;;;;;;4992969;28;20138;-91
2021/03/12 05:23:14;;;;;;;6.22;1.73;;;6.60;76.10;;;;;;4991432;28;20022;-91
2021/03/12 05:25:41;;;;;;;6.10;1.55;;;6.60;76.10;;;;;;4993043;28;20409;-89
2021/03/12 05:28:06;;;;;;;6.07;1.70;;;6.60;76.10;;;;;;4992450;28;20389;-90
2021/03/12 05:30:32;;;;;;;12.65;2.70;;;6.50;76.30;;;;;;4992319;28;20101;-91
2021/03/12 05:32:58;;;;;;;7.18;2.10;;;6.40;76.40;;;;;;4985236;28;20117;-91
2021/03/12 05:35:24;;;;;;;8.20;1.73;;;6.40;76.50;;;;;;4992172;28;20051;-91
2021/03/12 05:37:49;;;;;;;6.85;1.77;;;6.40;76.60;;;;;;4991207;28;20034;-91
2021/03/12 05:40:16;;;;;;;10.23;2.33;;;6.40;76.70;;;;;;4992510;28;20206;-89
2021/03/12 05:42:42;;;;;;;7.75;1.60;;;6.40;76.70;;;;;;4992339;28;20034;-89
2021/03/12 05:45:10;;;;;;;4.70;1.70;;;6.30;76.70;;;;;;4990127;28;20027;-89
2021/03/12 05:47:36;;;;;;;7.95;2.10;;;6.30;76.80;;;;;;4991742;28;20033;-89
2021/03/12 05:50:04;;;;;;;5.10;1.40;;;6.30;76.80;;;;;;4992535;28;20026;-90
2021/03/12 05:52:30;;;;;;;7.13;1.63;;;6.30;76.80;;;;;;4991533;28;20477;-91
2021/03/12 05:54:55;;;;;;;4.88;1.50;;;6.20;76.80;;;;;;4992040;28;20038;-91
2021/03/12 05:57:23;;;;;;;6.13;1.40;;;6.30;76.90;;;;;;4990957;28;20018;-91
2021/03/12 05:59:49;;;;;;;4.35;1.67;;;6.30;76.80;;;;;;4991250;28;20072;-90
2021/03/12 06:02:15;;;;;;;7.32;2.13;;;6.30;76.90;;;;;;4991029;28;20488;-91
2021/03/12 06:04:40;;;;;;;6.53;1.58;;;6.30;77.00;;;;;;4990303;28;20265;-90
2021/03/12 06:07:06;;;;;;;8.85;2.20;;;6.30;77.00;;;;;;4982680;28;20052;-90
2021/03/12 06:09:31;;;;;;;7.53;1.98;;;6.30;77.10;;;;;;4982459;28;20056;-91
2021/03/12 06:11:57;;;;;;;9.57;2.30;;;6.20;77.00;;;;;;4988069;28;20034;-92
2021/03/12 06:14:48;;;;;;;6.38;2.08;;;6.20;77.00;;;;;;4983275;28;20413;-90
2021/03/12 06:17:47;;;;;;;8.20;2.08;;;6.30;77.20;;;;;;4982798;28;20030;-89
2021/03/12 06:20:18;;;;;;;8.25;1.80;;;6.30;77.00;;;;;;4962779;28;20027;-90
2021/03/12 06:22:58;;;;;;;7.38;2.00;;;6.30;76.90;;;;;;4981069;28;20054;-90
2021/03/12 06:25:25;;;;;;;4.20;1.83;;;6.30;76.90;;;;;;4981156;28;20078;-89
2021/03/12 06:27:56;;;;;;;6.78;1.90;;;6.40;76.80;;;;;;4978393;28;20098;-91
2021/03/12 06:30:23;;;;;;;4.20;1.77;;;6.40;76.70;;;;;;4986171;28;20040;-90
2021/03/12 06:32:51;;;;;;;5.85;2.25;;;6.30;76.50;;;;;;4982401;28;20046;-89
2021/03/12 06:35:33;;;;;;;6.40;1.77;;;6.50;76.50;;;;;;4988005;28;20025;-90
2021/03/12 06:38:07;;;;;;;6.63;1.80;;;6.50;76.70;;;;;;4979722;28;20018;-90
2021/03/12 06:40:33;;;;;;;13.70;2.65;;;6.50;76.40;;;;;;4992800;28;20056;-87
2021/03/12 06:43:14;;;;;;;5.68;2.05;;;6.50;76.30;;;;;;4995246;28;20034;-89
2021/03/12 06:45:48;;;;;;;9.10;2.53;;;6.50;76.30;;;;;;4996125;28;20025;-87
2021/03/12 06:48:22;;;;;;;11.07;1.95;;;6.50;76.30;;;;;;4986289;28;20045;-86
2021/03/12 06:51:02;;;;;;;8.77;2.50;;;6.50;76.30;;;;;;4985393;28;20109;-87
2021/03/12 06:53:33;;;;;;;6.60;2.22;;;6.50;76.20;;;;;;4980843;28;20112;-88
2021/03/12 06:56:03;;;;;;;8.02;2.20;;;6.50;76.10;;;;;;4986656;28;20019;-91
2021/03/12 06:58:29;;;;;;;7.68;2.08;;;6.60;76.10;;;;;;4986779;28;20026;-88
2021/03/12 07:00:55;;;;;;;6.20;2.17;;;6.60;76.00;;;;;;4994800;28;20025;-88
2021/03/12 07:03:27;;;;;;;9.75;2.20;;;6.60;76.00;;;;;;4993931;28;20512;-86
2021/03/12 07:06:14;;;;;;;7.68;2.35;;;6.60;75.90;;;;;;4996335;28;20153;-85
2021/03/12 07:08:42;;;;;;;7.07;2.05;;;6.70;75.80;;;;;;4993953;28;20023;-87
2021/03/12 07:11:27;;;;;;;5.75;2.05;;;6.70;75.60;;;;;;4989808;28;20050;-87
2021/03/12 07:13:57;;;;;;;6.88;2.10;;;6.80;75.60;;;;;;5010985;28;20041;-86
2021/03/12 07:16:24;;;;;;;7.85;2.25;;;6.80;75.40;;;;;;4976848;28;20025;-89
2021/03/12 07:18:51;;;;;;;8.98;2.40;;;6.90;75.30;;;;;;4983382;28;20065;-88
2021/03/12 07:21:20;;;;;;;12.07;2.38;;;6.90;75.20;;;;;;4982144;28;20189;-90
2021/03/12 07:23:50;;;;;;;11.48;2.83;;;6.90;75.20;;;;;;4986089;28;20108;-90
2021/03/12 07:26:17;;;;;;;7.15;2.00;;;7.00;75.00;;;;;;4995364;28;20516;-93
2021/03/12 07:28:44;;;;;;;9.20;2.30;;;7.00;74.80;;;;;;4989702;28;20037;-92
2021/03/12 07:31:15;;;;;;;7.47;2.15;;;7.00;74.70;;;;;;4996146;28;20030;-94
2021/03/12 07:33:49;;;;;;;8.35;2.22;;;7.10;74.60;;;;;;4992339;28;20498;-94
2021/03/12 07:36:29;;;;;;;12.20;2.78;;;7.10;74.50;;;;;;4995467;28;20033;-96
2021/03/12 07:38:57;;;;;;;9.30;2.20;;;7.10;74.50;;;;;;5002910;28;20050;-95
2021/03/12 07:41:22;;;;;;;8.63;2.08;;;7.10;74.40;;;;;;4994749;28;20116;-94
2021/03/12 07:43:49;;;;;;;7.95;1.95;;;7.20;74.40;;;;;;4995222;28;20065;-93
2021/03/12 07:46:38;;;;;;;7.90;2.40;;;7.30;74.30;;;;;;4993244;28;20007;-95
2021/03/12 07:49:33;;;;;;;12.52;3.05;;;7.40;74.20;;;;;;4992434;28;20082;-94
2021/03/12 07:52:04;;;;;;;10.20;2.33;;;7.40;73.90;;;;;;4994870;28;20030;-96
2021/03/12 07:54:36;;;;;;;10.90;2.60;;;7.50;73.80;;;;;;4994001;28;20023;-90
2021/03/12 07:57:08;;;;;;;11.25;2.58;;;7.50;73.70;;;;;;4994279;28;20122;-89
2021/03/12 07:59:56;;;;;;;10.40;2.42;;;7.50;73.70;;;;;;4984791;28;20092;-91
2021/03/12 08:02:21;;;;;;;12.40;2.55;;;7.50;73.60;;;;;;4991607;28;20035;-89
2021/03/12 08:04:48;;;;;;;9.02;2.53;;;7.50;73.50;;;;;;4991128;28;20030;-89
2021/03/12 08:07:16;;;;;;;11.77;2.72;;;7.60;73.50;;;;;;4991878;28;20022;-90
2021/03/12 08:09:54;;;;;;;11.18;2.33;;;7.60;73.40;;;;;;4990805;28;20034;-88
2021/03/12 08:12:28;;;;;;;10.27;2.15;;;7.60;73.40;;;;;;4980896;28;20022;-90
2021/03/12 08:15:10;;;;;;;8.02;2.03;;;7.60;73.40;;;;;;4993416;28;20110;-89
2021/03/12 08:17:43;;;;;;;10.23;2.58;;;7.70;73.40;;;;;;4991752;28;20485;-88
2021/03/12 08:20:36;;;;;;;6.97;1.88;;;7.90;73.40;;;;;;4982364;28;20047;-89
2021/03/12 08:23:03;;;;;;;9.55;2.30;;;8.00;73.10;;;;;;4988802;28;20157;-88
2021/03/12 08:25:35;;;;;;;10.02;2.50;;;8.10;72.90;;;;;;4989617;28;20019;-88
2021/03/12 08:28:11;;;;;;;9.73;2.23;;;8.10;72.70;;;;;;4986610;28;20413;-91
2021/03/12 08:30:39;;;;;;;12.77;2.60;;;8.10;72.50;;;;;;4987037;28;20330;-91
2021/03/12 08:33:24;;;;;;;8.98;2.42;;;8.10;72.50;;;;;;4994212;28;20061;-90
2021/03/12 08:35:51;;;;;;;11.10;2.75;;;8.10;72.50;;;;;;4993558;28;20492;-90
2021/03/12 08:38:24;;;;;;;6.28;1.98;;;8.20;72.40;;;;;;4992329;28;20421;-92
2021/03/12 08:41:00;;;;;;;7.45;2.17;;;8.30;72.30;;;;;;4978699;28;20026;-92
2021/03/12 08:43:28;;;;;;;16.17;3.05;;;8.40;72.10;;;;;;4974400;28;20492;-92
2021/03/12 08:46:30;;;;;;;15.32;2.80;;;8.50;71.90;;;;;;4983450;28;20121;-91
2021/03/12 08:49:04;;;;;;;15.10;3.05;;;8.50;71.80;;;;;;4981451;28;20497;-88
2021/03/12 08:51:32;;;;;;;8.43;2.40;;;8.70;71.70;;;;;;4990956;28;20129;-89
2021/03/12 08:54:02;;;;;;;12.88;3.10;;;8.80;71.30;;;;;;4988633;28;20026;-93
2021/03/12 08:56:31;;;;;;;15.30;3.13;;;8.80;71.00;;;;;;4988837;28;20019;-89
2021/03/12 08:59:00;;;;;;;11.40;2.88;;;8.80;70.90;;;;;;4984571;28;20065;-89
2021/03/12 09:01:28;;;;;;;13.27;2.78;;;8.90;70.80;;;;;;4987286;28;20038;-90
2021/03/12 09:03:55;;;;;;;11.40;3.20;;;8.80;70.70;;;;;;4972220;28;20033;-90
2021/03/12 09:06:27;;;;;;;11.57;2.90;;;8.80;70.80;;;;;;4982901;28;20018;-90
2021/03/12 09:08:53;;;;;;;16.57;3.43;;;8.90;70.90;;;;;;4986112;28;20029;-90
2021/03/12 09:11:25;;;;;;;12.70;2.97;;;8.90;70.50;;;;;;4988102;28;20278;-91
2021/03/12 09:13:52;;;;;;;12.93;3.00;;;8.90;70.60;;;;;;4983246;28;20084;-90
2021/03/12 09:16:21;;;;;;;16.48;3.30;;;9.00;70.50;;;;;;4987983;28;20468;-90
2021/03/12 09:18:49;;;;;;;10.18;2.63;;;9.10;70.30;;;;;;4987186;28;20463;-88
2021/03/12 09:21:17;;;;;;;11.90;2.97;;;9.20;70.10;;;;;;4979596;28;20037;-91
2021/03/12 09:23:49;;;;;;;14.23;3.13;;;9.30;70.00;;;;;;4983039;28;20035;-90
2021/03/12 09:26:19;;;;;;;11.98;2.63;;;9.30;69.50;;;;;;4979171;28;20050;-92
2021/03/12 09:28:46;;;;;;;11.45;2.90;;;9.30;69.70;;;;;;4981238;28;20088;-91
2021/03/12 09:31:14;;;;;;;11.45;3.15;;;9.20;69.50;;;;;;4983877;28;20034;-91
2021/03/12 09:33:42;;;;;;;8.98;2.40;;;9.20;69.70;;;;;;4992676;28;21394;-89
2021/03/12 09:36:26;;;;;;;13.60;3.53;;;9.20;69.90;;;;;;4992303;28;20057;-89
2021/03/12 09:38:56;;;;;;;22.08;5.00;;;9.10;69.90;;;;;;4990711;28;20033;-89
2021/03/12 09:41:26;;;;;;;9.23;2.67;;;9.00;70.00;;;;;;4988318;28;20038;-89
2021/03/12 09:44:10;;;;;;;15.55;3.03;;;9.00;70.30;;;;;;4980024;28;20469;-88
2021/03/12 09:46:40;;;;;;;10.73;2.83;;;9.00;70.40;;;;;;4995502;28;20088;-91
2021/03/12 09:49:15;;;;;;;12.43;3.22;;;9.00;70.50;;;;;;4991592;28;20022;-91
2021/03/12 09:51:47;;;;;;;12.80;2.70;;;9.10;70.30;;;;;;4992194;28;20032;-88
2021/03/12 09:54:16;;;;;;;14.80;3.85;;;9.10;70.00;;;;;;4990852;28;20019;-90
2021/03/12 09:56:48;;;;;;;12.40;3.28;;;9.10;69.80;;;;;;4989980;28;20496;-91
2021/03/12 09:59:14;;;;;;;16.07;3.83;;;9.10;69.70;;;;;;4980367;28;20164;-88
2021/03/12 10:01:41;;;;;;;10.93;2.65;;;9.10;69.70;;;;;;4980546;28;20120;-88
2021/03/12 10:04:32;;;;;;;13.00;3.90;;;9.10;69.80;;;;;;4987841;28;20523;-89
2021/03/12 10:07:13;;;;;;;13.60;3.42;;;9.10;69.80;;;;;;4988338;28;20061;-90
2021/03/12 10:09:41;;;;;;;8.98;2.45;;;9.10;69.60;;;;;;4979006;28;20015;-89
2021/03/12 10:12:22;;;;;;;17.27;3.83;;;9.10;69.70;;;;;;4991930;28;20031;-91
2021/03/12 10:14:50;;;;;;;13.77;3.13;;;9.20;69.60;;;;;;4977308;28;20498;-89
2021/03/12 10:17:26;;;;;;;10.40;2.25;;;9.20;69.80;;;;;;4988834;28;20053;-89
2021/03/12 10:20:20;;;;;;;9.45;3.03;;;9.20;69.90;;;;;;4976183;28;20023;-90
2021/03/12 10:22:49;;;;;;;8.48;2.10;;;9.20;69.80;;;;;;4989869;28;20050;-90
2021/03/12 10:25:32;;;;;;;10.02;2.45;;;9.20;70.00;;;;;;4982721;28;20026;-87
2021/03/12 10:27:59;;;;;;;;;;;9.20;70.10;;;;;;4993943;28;20484;-88
2021/03/12 10:30:36;;;;;;;11.80;3.03;;;9.20;69.80;;;;;;4997819;28;19909;-90
2021/03/12 10:33:07;;;;;;;8.85;2.30;;;9.10;70.00;;;;;;4994809;28;20113;-91
2021/03/12 10:35:44;;;;;;;11.85;3.38;;;9.00;70.50;;;;;;4993968;28;20063;-92
2021/03/12 10:38:24;;;;;;;15.30;3.25;;;9.00;70.80;;;;;;4997187;28;20473;-90
2021/03/12 10:40:56;;;;;;;16.38;3.47;;;8.90;71.70;;;;;;4982834;28;20377;-91
2021/03/12 10:43:30;;;;;;;8.80;2.60;;;8.80;71.60;;;;;;4993536;28;20034;-90
2021/03/12 10:46:05;;;;;;;11.00;2.78;;;8.70;72.20;;;;;;4990502;28;20026;-90
2021/03/12 10:48:44;;;;;;;13.77;3.08;;;8.60;73.00;;;;;;4992367;28;20022;-89
2021/03/12 10:51:11;;;;;;;7.72;2.42;;;8.60;73.60;;;;;;4986692;28;20018;-90
2021/03/12 10:53:48;;;;;;;11.35;2.88;;;8.60;73.80;;;;;;4986318;28;20034;-89
2021/03/12 10:56:15;;;;;;;14.02;3.20;;;8.60;73.70;;;;;;4981288;28;20027;-91
2021/03/12 10:58:42;;;;;;;13.38;2.88;;;8.60;73.50;;;;;;4996869;28;20062;-88
2021/03/12 11:01:12;;;;;;;9.60;2.70;;;8.60;73.60;;;;;;4994228;28;20029;-88
2021/03/12 11:03:40;;;;;;;8.70;2.20;;;8.70;73.40;;;;;;4995060;28;20049;-89
2021/03/12 11:06:06;;;;;;;9.13;2.17;;;8.70;73.30;;;;;;4997848;28;20023;-89
2021/03/12 11:08:32;;;;;;;12.73;3.38;;;8.70;73.70;;;;;;4995139;28;20033;-87
2021/03/12 11:10:59;;;;;;;10.80;2.50;;;8.60;74.10;;;;;;4997067;28;20369;-88
2021/03/12 11:13:25;;;;;;;9.75;2.50;;;8.50;74.30;;;;;;4995183;28;20022;-88
2021/03/12 11:15:51;;;;;;;7.00;2.60;;;8.50;74.30;;;;;;4994411;28;20029;-88
2021/03/12 11:18:17;;;;;;;3.92;2.08;;;8.50;74.50;;;;;;4995707;28;20044;-88
2021/03/12 11:20:44;;;;;;;7.97;2.30;;;8.50;74.70;;;;;;4992666;28;20076;-86
2021/03/12 11:23:12;;;;;;;7.90;2.25;;;8.50;75.00;;;;;;4979642;28;20039;-87
2021/03/12 11:25:38;;;;;;;11.70;2.80;;;8.50;75.20;;;;;;4989287;28;20034;-87
2021/03/12 11:28:04;;;;;;;12.60;2.97;;;8.50;75.50;;;;;;4995216;28;20018;-88
2021/03/12 11:30:30;;;;;;;16.08;3.38;;;8.40;75.80;;;;;;4993737;28;20039;-88
2021/03/12 11:32:57;;;;;;;10.82;2.55;;;8.40;75.80;;;;;;4990438;28;20396;-88
2021/03/12 11:35:23;;;;;;;9.43;2.20;;;8.50;76.30;;;;;;4982941;28;20121;-87
2021/03/12 11:37:49;;;;;;;7.88;2.03;;;8.50;75.60;;;;;;4989310;28;20122;-91
2021/03/12 11:40:16;;;;;;;16.42;2.83;;;8.50;75.50;;;;;;4994418;28;20034;-90
2021/03/12 11:42:42;;;;;;;10.75;2.40;;;8.60;75.40;;;;;;4994109;28;20037;-90
2021/03/12 11:45:17;;;;;;;9.30;2.28;;;8.60;75.50;;;;;;4994235;28;20030;-90
2021/03/12 11:47:43;;;;;;;8.93;2.72;;;8.80;75.30;;;;;;4991442;28;20022;-90
2021/03/12 11:50:12;;;;;;;16.20;3.70;;;8.80;75.00;;;;;;4990853;28;20044;-89
2021/03/12 11:52:48;;;;;;;12.10;3.25;;;8.80;74.60;;;;;;4982528;28;20033;-92
2021/03/12 11:55:13;;;;;;;13.07;2.90;;;8.80;74.70;;;;;;4989689;28;20624;-90
2021/03/12 11:57:39;;;;;;;13.40;2.83;;;8.80;74.60;;;;;;4988963;28;20117;-90
2021/03/12 12:00:07;;;;;;;11.10;3.40;;;8.90;74.40;;;;;;4988796;28;20038;-91
2021/03/12 12:02:34;;;;;;;11.70;3.15;;;8.90;73.60;;;;;;4987853;28;20033;-89
2021/03/12 12:04:59;;;;;;;11.07;2.95;;;8.90;73.60;;;;;;4982849;28;20035;-92
2021/03/12 12:07:33;;;;;;;11.85;3.60;;;8.90;73.50;;;;;;4988713;28;20026;-93
2021/03/12 12:09:59;;;;;;;9.50;2.47;;;9.00;73.30;;;;;;4987470;28;20018;-92
2021/03/12 12:12:25;;;;;;;12.98;3.45;;;9.10;73.20;;;;;;4987091;28;20568;-92
2021/03/12 12:14:50;;;;;;;11.38;2.95;;;9.20;72.40;;;;;;4987859;28;20034;-92
2021/03/12 12:17:16;;;;;;;6.85;2.15;;;9.20;72.20;;;;;;4988880;28;20133;-91
2021/03/12 12:19:45;;;;;;;13.10;3.13;;;9.40;71.80;;;;;;4989058;28;20456;-92
2021/03/12 12:22:11;;;;;;;8.85;2.53;;;9.60;71.20;;;;;;4982894;28;20101;-92
2021/03/12 12:24:38;;;;;;;10.63;2.85;;;9.70;70.60;;;;;;4989599;28;20028;-89
2021/03/12 12:27:05;;;;;;;9.90;3.13;;;9.80;70.00;;;;;;4988819;28;20496;-92
2021/03/12 12:29:31;;;;;;;10.27;2.70;;;9.80;69.40;;;;;;4991880;28;20113;-90
2021/03/12 12:31:57;;;;;;;7.55;2.38;;;9.70;68.30;;;;;;4992986;28;20137;-91
2021/03/12 12:34:22;;;;;;;9.93;2.53;;;9.70;68.70;;;;;;4983321;28;20030;-90
2021/03/12 12:36:49;;;;;;;7.25;2.38;;;9.60;68.60;;;;;;4993948;28;20034;-90
2021/03/12 12:39:15;;;;;;;8.88;2.17;;;9.60;69.00;;;;;;4988033;28;20121;-86
2021/03/12 12:41:40;;;;;;;6.35;2.10;;;9.60;68.90;;;;;;4983378;28;20113;-87
2021/03/12 12:44:07;;;;;;;6.40;2.10;;;9.60;69.20;;;;;;4983649;28;20064;-88
2021/03/12 12:46:34;;;;;;;6.13;2.00;;;9.60;69.20;;;;;;4986883;28;20037;-87
2021/03/12 12:49:00;;;;;;;9.45;2.40;;;9.60;69.30;;;;;;4984559;28;20026;-86
2021/03/12 12:51:25;;;;;;;10.93;2.58;;;9.60;68.90;;;;;;4983833;28;20617;-90
2021/03/12 12:53:52;;;;;;;8.93;2.58;;;9.60;69.00;;;;;;4988947;28;20157;-89
2021/03/12 12:56:17;;;;;;;9.18;2.38;;;9.50;69.10;;;;;;4987097;28;20026;-88
2021/03/12 12:58:43;;;;;;;9.65;2.33;;;9.50;69.70;;;;;;4989247;28;20037;-92
2021/03/12 13:01:09;;;;;;;8.48;2.15;;;9.40;69.90;;;;;;4989463;28;20034;-92
2021/03/12 13:03:35;;;;;;;6.53;1.90;;;9.40;70.00;;;;;;4992013;28;20022;-92
2021/03/12 13:06:00;;;;;;;6.18;1.95;;;9.40;70.30;;;;;;4989995;28;20465;-92